sensor_id;sensor_type;location;lat;lon;timestamp;temperature;humidity
29855;DHT22;16733;48.738;9.106;2022-09-09T00:04:29;15.70;99.50
29855;DHT22;16733;48.738;9.106;2022-09-09T00:25:11;15.80;99.80
29855;DHT22;16733;48.738;9.106;2022-09-09T00:30:43;15.80;99.90
29855;DHT22;16733;48.738;9.106;2022-09-09T00:33:12;15.90;99.90
29855;DHT22;16733;48.738;9.106;2022-09-09T00:35:45;15.90;99.80
29855;DHT22;16733;48.738;9.106;2022-09-09T00:38:18;16.00;99.70
29855;DHT22;16733;48.738;9.106;2022-09-09T00:40:52;16.10;99.60
29855;DHT22;16733;48.738;9.106;2022-09-09T00:43:24;16.10;99.50
29855;DHT22;16733;48.738;9.106;2022-09-09T00:51:44;16.30;99.30
29855;DHT22;16733;48.738;9.106;2022-09-09T01:00:30;16.30;99.10
29855;DHT22;16733;48.738;9.106;2022-09-09T01:06:15;16.40;99.20
29855;DHT22;16733;48.738;9.106;2022-09-09T01:11:33;16.40;99.30
29855;DHT22;16733;48.738;9.106;2022-09-09T01:16:52;16.30;99.10
29855;DHT22;16733;48.738;9.106;2022-09-09T01:19:32;16.30;99.40
29855;DHT22;16733;48.738;9.106;2022-09-09T01:27:40;16.30;99.20
29855;DHT22;16733;48.738;9.106;2022-09-09T01:33:33;16.20;99.40
29855;DHT22;16733;48.738;9.106;2022-09-09T01:36:00;16.20;99.80
29855;DHT22;16733;48.738;9.106;2022-09-09T01:38:28;16.20;99.70
29855;DHT22;16733;48.738;9.106;2022-09-09T01:40:55;16.20;99.70
29855;DHT22;16733;48.738;9.106;2022-09-09T01:43:21;16.20;99.60
29855;DHT22;16733;48.738;9.106;2022-09-09T01:45:50;16.20;99.60
29855;DHT22;16733;48.738;9.106;2022-09-09T01:48:18;16.20;99.60
29855;DHT22;16733;48.738;9.106;2022-09-09T01:50:44;16.20;99.50
29855;DHT22;16733;48.738;9.106;2022-09-09T02:02:36;16.10;99.40
29855;DHT22;16733;48.738;9.106;2022-09-09T02:11:06;16.10;99.90
29855;DHT22;16733;48.738;9.106;2022-09-09T02:13:37;16.10;99.90
29855;DHT22;16733;48.738;9.106;2022-09-09T02:16:26;16.10;99.90
29855;DHT22;16733;48.738;9.106;2022-09-09T02:21:38;16.10;99.60
29855;DHT22;16733;48.738;9.106;2022-09-09T02:24:06;16.10;99.70
29855;DHT22;16733;48.738;9.106;2022-09-09T02:29:59;16.10;99.40
29855;DHT22;16733;48.738;9.106;2022-09-09T02:32:28;16.00;99.70
29855;DHT22;16733;48.738;9.106;2022-09-09T02:38:19;16.00;99.40
29855;DHT22;16733;48.738;9.106;2022-09-09T02:40:47;15.90;99.70
29855;DHT22;16733;48.738;9.106;2022-09-09T02:43:14;15.80;99.60
29855;DHT22;16733;48.738;9.106;2022-09-09T02:45:52;15.80;99.60
29855;DHT22;16733;48.738;9.106;2022-09-09T02:48:26;15.80;99.50
29855;DHT22;16733;48.738;9.106;2022-09-09T02:51:03;15.70;99.50
29855;DHT22;16733;48.738;9.106;2022-09-09T02:56:54;15.60;99.30
29855;DHT22;16733;48.738;9.106;2022-09-09T02:59:21;15.60;99.80
29855;DHT22;16733;48.738;9.106;2022-09-09T03:01:47;15.60;99.70
29855;DHT22;16733;48.738;9.106;2022-09-09T03:04:13;15.60;99.60
29855;DHT22;16733;48.738;9.106;2022-09-09T03:06:38;15.60;99.70
29855;DHT22;16733;48.738;9.106;2022-09-09T03:09:04;15.60;99.60
29855;DHT22;16733;48.738;9.106;2022-09-09T03:11:30;15.60;99.50
29855;DHT22;16733;48.738;9.106;2022-09-09T03:13:56;15.60;99.50
29855;DHT22;16733;48.738;9.106;2022-09-09T03:16:23;15.60;99.50
29855;DHT22;16733;48.738;9.106;2022-09-09T03:22:10;15.50;99.30
29855;DHT22;16733;48.738;9.106;2022-09-09T03:24:36;15.50;99.70
29855;DHT22;16733;48.738;9.106;2022-09-09T03:30:26;15.40;99.40
29855;DHT22;16733;48.738;9.106;2022-09-09T03:32:52;15.50;99.80
29855;DHT22;16733;48.738;9.106;2022-09-09T03:38:40;15.40;99.60
29855;DHT22;16733;48.738;9.106;2022-09-09T03:41:06;15.50;99.90
29855;DHT22;16733;48.738;9.106;2022-09-09T03:46:55;15.50;99.70
29855;DHT22;16733;48.738;9.106;2022-09-09T03:49:20;15.50;99.90
29855;DHT22;16733;48.738;9.106;2022-09-09T03:51:47;15.50;99.90
29855;DHT22;16733;48.738;9.106;2022-09-09T03:57:35;15.50;99.70
29855;DHT22;16733;48.738;9.106;2022-09-09T04:00:05;15.50;99.90
29855;DHT22;16733;48.738;9.106;2022-09-09T04:02:32;15.50;99.90
29855;DHT22;16733;48.738;9.106;2022-09-09T04:08:20;15.40;99.80
29855;DHT22;16733;48.738;9.106;2022-09-09T04:10:47;15.50;99.90
29855;DHT22;16733;48.738;9.106;2022-09-09T04:13:14;15.40;99.90
29855;DHT22;16733;48.738;9.106;2022-09-09T04:15:41;15.40;99.90
29855;DHT22;16733;48.738;9.106;2022-09-09T04:18:07;15.50;99.90
29855;DHT22;16733;48.738;9.106;2022-09-09T04:20:33;15.50;99.90
29855;DHT22;16733;48.738;9.106;2022-09-09T04:22:59;15.50;99.90
29855;DHT22;16733;48.738;9.106;2022-09-09T04:28:47;15.50;99.90
29855;DHT22;16733;48.738;9.106;2022-09-09T04:31:21;15.50;99.90
29855;DHT22;16733;48.738;9.106;2022-09-09T04:37:10;15.50;99.70
29855;DHT22;16733;48.738;9.106;2022-09-09T04:39:35;15.50;99.90
29855;DHT22;16733;48.738;9.106;2022-09-09T04:45:24;15.50;99.70
29855;DHT22;16733;48.738;9.106;2022-09-09T04:47:49;15.40;99.90
29855;DHT22;16733;48.738;9.106;2022-09-09T04:50:15;15.40;99.90
29855;DHT22;16733;48.738;9.106;2022-09-09T04:52:42;15.30;99.90
29855;DHT22;16733;48.738;9.106;2022-09-09T04:55:07;15.30;99.90
29855;DHT22;16733;48.738;9.106;2022-09-09T04:57:34;15.30;99.90
29855;DHT22;16733;48.738;9.106;2022-09-09T05:00:00;15.30;99.90
29855;DHT22;16733;48.738;9.106;2022-09-09T05:02:27;15.30;99.90
29855;DHT22;16733;48.738;9.106;2022-09-09T05:08:14;15.30;99.90
29855;DHT22;16733;48.738;9.106;2022-09-09T05:10:40;15.20;99.90
29855;DHT22;16733;48.738;9.106;2022-09-09T05:16:30;15.20;99.90
29855;DHT22;16733;48.738;9.106;2022-09-09T05:18:55;15.30;99.90
29855;DHT22;16733;48.738;9.106;2022-09-09T05:21:23;15.30;99.90
29855;DHT22;16733;48.738;9.106;2022-09-09T05:27:12;15.30;99.90
29855;DHT22;16733;48.738;9.106;2022-09-09T05:29:38;15.40;99.90
29855;DHT22;16733;48.738;9.106;2022-09-09T05:35:26;15.40;99.90
29855;DHT22;16733;48.738;9.106;2022-09-09T05:37:51;15.50;99.90
29855;DHT22;16733;48.738;9.106;2022-09-09T05:43:39;15.60;99.90
29855;DHT22;16733;48.738;9.106;2022-09-09T05:46:13;15.60;99.90
29855;DHT22;16733;48.738;9.106;2022-09-09T05:52:01;15.70;99.90
29855;DHT22;16733;48.738;9.106;2022-09-09T05:54:28;15.70;99.90
29855;DHT22;16733;48.738;9.106;2022-09-09T06:00:17;15.80;99.90
29855;DHT22;16733;48.738;9.106;2022-09-09T06:02:43;15.90;99.90
29855;DHT22;16733;48.738;9.106;2022-09-09T06:05:09;15.90;99.90
29855;DHT22;16733;48.738;9.106;2022-09-09T06:14:20;16.00;99.90
29855;DHT22;16733;48.738;9.106;2022-09-09T06:16:46;16.00;99.90
29855;DHT22;16733;48.738;9.106;2022-09-09T06:22:33;16.00;99.90
29855;DHT22;16733;48.738;9.106;2022-09-09T06:28:21;16.10;99.90
29855;DHT22;16733;48.738;9.106;2022-09-09T06:30:47;16.10;99.90
29855;DHT22;16733;48.738;9.106;2022-09-09T06:33:12;16.20;99.90
29855;DHT22;16733;48.738;9.106;2022-09-09T06:35:38;16.20;99.90
29855;DHT22;16733;48.738;9.106;2022-09-09T06:38:03;16.20;99.90
29855;DHT22;16733;48.738;9.106;2022-09-09T06:43:52;16.30;99.90
29855;DHT22;16733;48.738;9.106;2022-09-09T06:46:23;16.30;99.90
29855;DHT22;16733;48.738;9.106;2022-09-09T06:52:11;16.40;99.90
29855;DHT22;16733;48.738;9.106;2022-09-09T06:54:37;16.50;99.90
29855;DHT22;16733;48.738;9.106;2022-09-09T07:00:24;16.50;99.90
29855;DHT22;16733;48.738;9.106;2022-09-09T07:02:51;16.60;99.90
29855;DHT22;16733;48.738;9.106;2022-09-09T07:05:54;16.60;99.90
29855;DHT22;16733;48.738;9.106;2022-09-09T07:08:20;16.70;99.90
29855;DHT22;16733;48.738;9.106;2022-09-09T07:10:46;16.70;99.90
29855;DHT22;16733;48.738;9.106;2022-09-09T07:13:12;16.70;99.90
29855;DHT22;16733;48.738;9.106;2022-09-09T07:19:03;16.80;99.90
29855;DHT22;16733;48.738;9.106;2022-09-09T07:21:30;16.80;99.90
29855;DHT22;16733;48.738;9.106;2022-09-09T07:27:18;16.90;99.90
29855;DHT22;16733;48.738;9.106;2022-09-09T07:29:43;17.00;99.90
29855;DHT22;16733;48.738;9.106;2022-09-09T07:32:10;17.10;99.90
29855;DHT22;16733;48.738;9.106;2022-09-09T07:34:36;17.10;99.90
29855;DHT22;16733;48.738;9.106;2022-09-09T07:37:02;17.20;99.90
29855;DHT22;16733;48.738;9.106;2022-09-09T07:39:27;17.30;99.90
29855;DHT22;16733;48.738;9.106;2022-09-09T07:41:53;17.40;99.90
29855;DHT22;16733;48.738;9.106;2022-09-09T07:44:24;17.50;99.90
29855;DHT22;16733;48.738;9.106;2022-09-09T07:46:53;17.50;99.90
29855;DHT22;16733;48.738;9.106;2022-09-09T07:49:19;17.60;99.90
29855;DHT22;16733;48.738;9.106;2022-09-09T07:51:46;17.60;99.80
29855;DHT22;16733;48.738;9.106;2022-09-09T07:54:13;17.60;99.90
29855;DHT22;16733;48.738;9.106;2022-09-09T07:56:40;17.70;99.90
29855;DHT22;16733;48.738;9.106;2022-09-09T07:59:06;17.80;99.90
29855;DHT22;16733;48.738;9.106;2022-09-09T08:04:54;17.90;99.50
29855;DHT22;16733;48.738;9.106;2022-09-09T08:07:20;18.10;99.90
29855;DHT22;16733;48.738;9.106;2022-09-09T08:13:09;18.20;99.20
29855;DHT22;16733;48.738;9.106;2022-09-09T08:15:34;18.30;99.40
29855;DHT22;16733;48.738;9.106;2022-09-09T08:18:00;18.30;99.20
29855;DHT22;16733;48.738;9.106;2022-09-09T08:23:50;18.40;98.70
29855;DHT22;16733;48.738;9.106;2022-09-09T08:26:21;18.50;99.20
29855;DHT22;16733;48.738;9.106;2022-09-09T08:28:49;18.50;98.90
29855;DHT22;16733;48.738;9.106;2022-09-09T08:34:43;18.70;98.50
29855;DHT22;16733;48.738;9.106;2022-09-09T08:37:09;18.80;98.80
29855;DHT22;16733;48.738;9.106;2022-09-09T08:39:34;18.80;98.70
29855;DHT22;16733;48.738;9.106;2022-09-09T08:42:23;18.90;98.40
29855;DHT22;16733;48.738;9.106;2022-09-09T08:50:36;19.10;98.10
29855;DHT22;16733;48.738;9.106;2022-09-09T08:53:24;19.10;97.50
29855;DHT22;16733;48.738;9.106;2022-09-09T08:59:17;19.30;97.30
29855;DHT22;16733;48.738;9.106;2022-09-09T09:02:17;19.50;97.50
29855;DHT22;16733;48.738;9.106;2022-09-09T09:04:49;19.60;96.70
29855;DHT22;16733;48.738;9.106;2022-09-09T09:13:02;19.60;96.20
29855;DHT22;16733;48.738;9.106;2022-09-09T09:18:51;19.00;95.40
29855;DHT22;16733;48.738;9.106;2022-09-09T09:21:25;18.30;96.40
29855;DHT22;16733;48.738;9.106;2022-09-09T09:24:48;17.70;96.90
29855;DHT22;16733;48.738;9.106;2022-09-09T09:27:36;17.20;98.00
29855;DHT22;16733;48.738;9.106;2022-09-09T09:33:49;16.50;99.10
29855;DHT22;16733;48.738;9.106;2022-09-09T09:43:00;16.30;99.90
29855;DHT22;16733;48.738;9.106;2022-09-09T09:45:43;16.50;99.90
29855;DHT22;16733;48.738;9.106;2022-09-09T09:48:13;16.60;99.90
29855;DHT22;16733;48.738;9.106;2022-09-09T09:56:44;17.30;99.90
29855;DHT22;16733;48.738;9.106;2022-09-09T09:59:37;17.50;99.90
29855;DHT22;16733;48.738;9.106;2022-09-09T10:02:24;17.70;99.90
29855;DHT22;16733;48.738;9.106;2022-09-09T10:05:05;17.90;99.90
29855;DHT22;16733;48.738;9.106;2022-09-09T10:07:31;18.10;99.90
29855;DHT22;16733;48.738;9.106;2022-09-09T10:09:58;18.30;99.90
29855;DHT22;16733;48.738;9.106;2022-09-09T10:23:49;19.00;99.90
29855;DHT22;16733;48.738;9.106;2022-09-09T10:26:45;19.20;99.90
29855;DHT22;16733;48.738;9.106;2022-09-09T10:29:23;19.50;99.90
29855;DHT22;16733;48.738;9.106;2022-09-09T10:37:41;20.10;99.80
29855;DHT22;16733;48.738;9.106;2022-09-09T10:48:52;20.30;99.20
29855;DHT22;16733;48.738;9.106;2022-09-09T10:54:52;20.40;99.40
29855;DHT22;16733;48.738;9.106;2022-09-09T10:57:25;20.60;99.00
29855;DHT22;16733;48.738;9.106;2022-09-09T10:59:56;20.60;99.10
29855;DHT22;16733;48.738;9.106;2022-09-09T11:02:29;20.80;98.40
29855;DHT22;16733;48.738;9.106;2022-09-09T11:05:14;20.90;98.00
29855;DHT22;16733;48.738;9.106;2022-09-09T11:08:12;21.00;97.70
29855;DHT22;16733;48.738;9.106;2022-09-09T11:13:49;21.20;97.20
29855;DHT22;16733;48.738;9.106;2022-09-09T11:16:39;21.30;96.30
29855;DHT22;16733;48.738;9.106;2022-09-09T11:22:37;21.20;95.20
29855;DHT22;16733;48.738;9.106;2022-09-09T11:25:20;21.10;95.40
29855;DHT22;16733;48.738;9.106;2022-09-09T11:41:52;20.50;94.30
29855;DHT22;16733;48.738;9.106;2022-09-09T11:44:24;20.30;93.50
29855;DHT22;16733;48.738;9.106;2022-09-09T11:47:28;20.10;93.80
29855;DHT22;16733;48.738;9.106;2022-09-09T11:52:45;19.90;94.50
29855;DHT22;16733;48.738;9.106;2022-09-09T12:00:51;19.90;94.30
29855;DHT22;16733;48.738;9.106;2022-09-09T12:14:59;19.90;94.20
29855;DHT22;16733;48.738;9.106;2022-09-09T12:27:26;20.80;93.00
29855;DHT22;16733;48.738;9.106;2022-09-09T12:30:03;21.00;92.30
29855;DHT22;16733;48.738;9.106;2022-09-09T12:32:30;21.20;91.70
29855;DHT22;16733;48.738;9.106;2022-09-09T12:35:03;21.30;91.90
29855;DHT22;16733;48.738;9.106;2022-09-09T12:37:36;21.50;91.50
29855;DHT22;16733;48.738;9.106;2022-09-09T12:40:23;21.60;90.90
29855;DHT22;16733;48.738;9.106;2022-09-09T12:42:49;21.70;90.00
29855;DHT22;16733;48.738;9.106;2022-09-09T12:45:18;21.50;90.00
29855;DHT22;16733;48.738;9.106;2022-09-09T12:47:54;21.40;88.80
29855;DHT22;16733;48.738;9.106;2022-09-09T12:50:22;21.20;89.20
29855;DHT22;16733;48.738;9.106;2022-09-09T12:56:23;20.80;89.80
29855;DHT22;16733;48.738;9.106;2022-09-09T12:58:53;20.70;90.70
29855;DHT22;16733;48.738;9.106;2022-09-09T13:01:31;20.80;90.80
29855;DHT22;16733;48.738;9.106;2022-09-09T13:03:57;20.90;90.40
29855;DHT22;16733;48.738;9.106;2022-09-09T13:06:28;20.90;90.80
29855;DHT22;16733;48.738;9.106;2022-09-09T13:08:56;21.00;90.30
29855;DHT22;16733;48.738;9.106;2022-09-09T13:11:41;21.10;90.30
29855;DHT22;16733;48.738;9.106;2022-09-09T13:14:37;21.10;90.30
29855;DHT22;16733;48.738;9.106;2022-09-09T13:17:06;21.30;90.10
29855;DHT22;16733;48.738;9.106;2022-09-09T13:19:43;21.60;90.60
29855;DHT22;16733;48.738;9.106;2022-09-09T13:25:32;22.10;88.20
29855;DHT22;16733;48.738;9.106;2022-09-09T13:28:05;22.20;89.70
29855;DHT22;16733;48.738;9.106;2022-09-09T13:30:33;22.30;88.40
29855;DHT22;16733;48.738;9.106;2022-09-09T13:39:51;22.60;85.70
29855;DHT22;16733;48.738;9.106;2022-09-09T13:42:27;22.50;86.50
29855;DHT22;16733;48.738;9.106;2022-09-09T13:48:18;22.40;84.20
29855;DHT22;16733;48.738;9.106;2022-09-09T13:50:57;22.40;86.60
29855;DHT22;16733;48.738;9.106;2022-09-09T13:53:23;22.40;85.10
29855;DHT22;16733;48.738;9.106;2022-09-09T13:55:50;22.50;86.30
29855;DHT22;16733;48.738;9.106;2022-09-09T13:58:17;22.60;84.90
29855;DHT22;16733;48.738;9.106;2022-09-09T14:00:45;22.80;84.70
29855;DHT22;16733;48.738;9.106;2022-09-09T14:03:11;22.90;84.00
29855;DHT22;16733;48.738;9.106;2022-09-09T14:08:58;23.00;81.70
29855;DHT22;16733;48.738;9.106;2022-09-09T14:11:24;23.00;83.90
29855;DHT22;16733;48.738;9.106;2022-09-09T14:13:52;23.00;83.20
29855;DHT22;16733;48.738;9.106;2022-09-09T14:19:39;23.00;81.30
29855;DHT22;16733;48.738;9.106;2022-09-09T14:22:05;22.90;83.80
29855;DHT22;16733;48.738;9.106;2022-09-09T14:27:53;22.70;80.70
29855;DHT22;16733;48.738;9.106;2022-09-09T14:30:18;22.60;82.80
29855;DHT22;16733;48.738;9.106;2022-09-09T14:36:06;22.40;80.10
29855;DHT22;16733;48.738;9.106;2022-09-09T14:38:33;22.20;81.60
29855;DHT22;16733;48.738;9.106;2022-09-09T14:41:00;22.10;81.10
29855;DHT22;16733;48.738;9.106;2022-09-09T14:43:42;22.10;82.30
29855;DHT22;16733;48.738;9.106;2022-09-09T14:46:10;22.10;81.40
29855;DHT22;16733;48.738;9.106;2022-09-09T14:48:36;22.10;80.30
29855;DHT22;16733;48.738;9.106;2022-09-09T14:51:10;22.10;80.40
29855;DHT22;16733;48.738;9.106;2022-09-09T14:56:58;22.10;78.90
29855;DHT22;16733;48.738;9.106;2022-09-09T14:59:24;22.10;80.10
29855;DHT22;16733;48.738;9.106;2022-09-09T15:01:50;22.00;79.30
29855;DHT22;16733;48.738;9.106;2022-09-09T15:04:15;21.90;79.20
29855;DHT22;16733;48.738;9.106;2022-09-09T15:10:04;21.80;78.30
29855;DHT22;16733;48.738;9.106;2022-09-09T15:12:33;21.70;79.50
29855;DHT22;16733;48.738;9.106;2022-09-09T15:15:00;21.60;78.90
29855;DHT22;16733;48.738;9.106;2022-09-09T15:17:26;21.60;79.20
29855;DHT22;16733;48.738;9.106;2022-09-09T15:23:14;21.40;78.20
29855;DHT22;16733;48.738;9.106;2022-09-09T15:25:51;21.50;79.60
29855;DHT22;16733;48.738;9.106;2022-09-09T15:28:17;21.60;78.70
29855;DHT22;16733;48.738;9.106;2022-09-09T15:30:43;21.80;79.30
29855;DHT22;16733;48.738;9.106;2022-09-09T15:33:10;22.20;79.50
29855;DHT22;16733;48.738;9.106;2022-09-09T15:35:35;22.30;78.10
29855;DHT22;16733;48.738;9.106;2022-09-09T15:38:04;22.40;77.90
29855;DHT22;16733;48.738;9.106;2022-09-09T15:40:31;22.30;77.60
29855;DHT22;16733;48.738;9.106;2022-09-09T15:42:58;22.10;77.80
29855;DHT22;16733;48.738;9.106;2022-09-09T15:45:23;21.90;77.70
29855;DHT22;16733;48.738;9.106;2022-09-09T15:47:49;21.70;77.80
29855;DHT22;16733;48.738;9.106;2022-09-09T15:50:15;21.50;77.70
29855;DHT22;16733;48.738;9.106;2022-09-09T15:52:40;21.30;77.20
29855;DHT22;16733;48.738;9.106;2022-09-09T15:58:31;21.10;76.20
29855;DHT22;16733;48.738;9.106;2022-09-09T16:01:04;20.90;77.30
29855;DHT22;16733;48.738;9.106;2022-09-09T16:03:36;20.80;76.80
29855;DHT22;16733;48.738;9.106;2022-09-09T16:06:04;20.80;77.20
29855;DHT22;16733;48.738;9.106;2022-09-09T16:08:39;20.70;77.40
29855;DHT22;16733;48.738;9.106;2022-09-09T16:14:27;20.60;76.60
29855;DHT22;16733;48.738;9.106;2022-09-09T16:16:52;20.60;78.20
29855;DHT22;16733;48.738;9.106;2022-09-09T16:19:18;20.50;77.90
29855;DHT22;16733;48.738;9.106;2022-09-09T16:21:46;20.50;77.70
29855;DHT22;16733;48.738;9.106;2022-09-09T16:24:17;20.40;77.60
29855;DHT22;16733;48.738;9.106;2022-09-09T16:26:45;20.40;77.40
29855;DHT22;16733;48.738;9.106;2022-09-09T16:29:12;20.30;77.40
29855;DHT22;16733;48.738;9.106;2022-09-09T16:31:38;20.30;77.40
29855;DHT22;16733;48.738;9.106;2022-09-09T16:34:06;20.30;77.40
29855;DHT22;16733;48.738;9.106;2022-09-09T16:36:33;20.30;77.20
29855;DHT22;16733;48.738;9.106;2022-09-09T16:39:01;20.20;77.10
29855;DHT22;16733;48.738;9.106;2022-09-09T16:41:28;20.10;77.40
29855;DHT22;16733;48.738;9.106;2022-09-09T16:43:57;20.00;77.80
29855;DHT22;16733;48.738;9.106;2022-09-09T16:46:23;19.90;77.90
29855;DHT22;16733;48.738;9.106;2022-09-09T16:48:50;19.90;78.40
29855;DHT22;16733;48.738;9.106;2022-09-09T16:51:18;19.80;78.50
29855;DHT22;16733;48.738;9.106;2022-09-09T16:53:44;19.80;78.50
29855;DHT22;16733;48.738;9.106;2022-09-09T16:56:13;19.70;78.60
29855;DHT22;16733;48.738;9.106;2022-09-09T16:58:39;19.60;78.40
29855;DHT22;16733;48.738;9.106;2022-09-09T17:04:27;19.40;77.80
29855;DHT22;16733;48.738;9.106;2022-09-09T17:06:54;19.20;79.50
29855;DHT22;16733;48.738;9.106;2022-09-09T17:09:21;19.10;79.40
29855;DHT22;16733;48.738;9.106;2022-09-09T17:11:48;19.00;79.40
29855;DHT22;16733;48.738;9.106;2022-09-09T17:14:17;18.90;80.40
29855;DHT22;16733;48.738;9.106;2022-09-09T17:16:44;18.90;79.80
29855;DHT22;16733;48.738;9.106;2022-09-09T17:19:10;18.80;79.80
29855;DHT22;16733;48.738;9.106;2022-09-09T17:21:37;18.70;80.00
29855;DHT22;16733;48.738;9.106;2022-09-09T17:27:24;18.60;79.90
29855;DHT22;16733;48.738;9.106;2022-09-09T17:29:50;18.50;81.10
29855;DHT22;16733;48.738;9.106;2022-09-09T17:32:16;18.50;81.10
29855;DHT22;16733;48.738;9.106;2022-09-09T17:38:04;18.30;80.80
29855;DHT22;16733;48.738;9.106;2022-09-09T17:40:30;18.30;82.10
29855;DHT22;16733;48.738;9.106;2022-09-09T17:42:56;18.20;82.10
29855;DHT22;16733;48.738;9.106;2022-09-09T17:45:22;18.20;82.20
29855;DHT22;16733;48.738;9.106;2022-09-09T17:47:48;18.20;82.30
29855;DHT22;16733;48.738;9.106;2022-09-09T17:50:14;18.10;82.30
29855;DHT22;16733;48.738;9.106;2022-09-09T17:52:40;18.00;82.50
29855;DHT22;16733;48.738;9.106;2022-09-09T17:55:06;18.00;82.60
29855;DHT22;16733;48.738;9.106;2022-09-09T18:01:00;17.90;82.60
29855;DHT22;16733;48.738;9.106;2022-09-09T18:03:26;17.90;83.70
29855;DHT22;16733;48.738;9.106;2022-09-09T18:09:25;17.80;83.30
29855;DHT22;16733;48.738;9.106;2022-09-09T18:11:53;17.80;84.30
29855;DHT22;16733;48.738;9.106;2022-09-09T18:14:22;17.80;84.40
29855;DHT22;16733;48.738;9.106;2022-09-09T18:16:49;17.80;84.50
29855;DHT22;16733;48.738;9.106;2022-09-09T18:19:17;17.70;84.60
29855;DHT22;16733;48.738;9.106;2022-09-09T18:21:43;17.70;84.70
29855;DHT22;16733;48.738;9.106;2022-09-09T18:27:31;17.80;84.40
29855;DHT22;16733;48.738;9.106;2022-09-09T18:29:56;17.70;85.30
29855;DHT22;16733;48.738;9.106;2022-09-09T18:32:22;17.70;85.20
29855;DHT22;16733;48.738;9.106;2022-09-09T18:34:48;17.70;85.20
29855;DHT22;16733;48.738;9.106;2022-09-09T18:37:15;17.70;85.30
29855;DHT22;16733;48.738;9.106;2022-09-09T18:39:40;17.70;85.50
29855;DHT22;16733;48.738;9.106;2022-09-09T18:42:06;17.60;85.50
29855;DHT22;16733;48.738;9.106;2022-09-09T18:45:01;17.70;85.60
29855;DHT22;16733;48.738;9.106;2022-09-09T18:47:26;17.70;85.20
29855;DHT22;16733;48.738;9.106;2022-09-09T18:49:52;17.70;86.00
29855;DHT22;16733;48.738;9.106;2022-09-09T18:52:17;17.70;86.00
29855;DHT22;16733;48.738;9.106;2022-09-09T18:54:43;17.70;86.70
29855;DHT22;16733;48.738;9.106;2022-09-09T19:00:32;17.70;85.80
29855;DHT22;16733;48.738;9.106;2022-09-09T19:02:58;17.70;86.70
29855;DHT22;16733;48.738;9.106;2022-09-09T19:08:46;17.60;86.30
29855;DHT22;16733;48.738;9.106;2022-09-09T19:14:34;17.60;86.70
29855;DHT22;16733;48.738;9.106;2022-09-09T19:16:59;17.60;87.70
29855;DHT22;16733;48.738;9.106;2022-09-09T19:19:30;17.50;87.50
29855;DHT22;16733;48.738;9.106;2022-09-09T19:21:57;17.50;87.30
29855;DHT22;16733;48.738;9.106;2022-09-09T19:24:26;17.50;87.60
29855;DHT22;16733;48.738;9.106;2022-09-09T19:26:57;17.50;87.50
29855;DHT22;16733;48.738;9.106;2022-09-09T19:29:26;17.40;87.50
29855;DHT22;16733;48.738;9.106;2022-09-09T19:31:54;17.40;87.70
29855;DHT22;16733;48.738;9.106;2022-09-09T19:34:20;17.40;87.80
29855;DHT22;16733;48.738;9.106;2022-09-09T19:36:46;17.30;87.70
29855;DHT22;16733;48.738;9.106;2022-09-09T19:39:13;17.30;87.70
29855;DHT22;16733;48.738;9.106;2022-09-09T19:41:39;17.30;87.70
29855;DHT22;16733;48.738;9.106;2022-09-09T19:44:07;17.20;87.80
29855;DHT22;16733;48.738;9.106;2022-09-09T19:46:37;17.20;87.90
29855;DHT22;16733;48.738;9.106;2022-09-09T19:49:05;17.20;88.00
29855;DHT22;16733;48.738;9.106;2022-09-09T19:58:15;17.10;88.10
29855;DHT22;16733;48.738;9.106;2022-09-09T20:00:41;17.00;88.90
29855;DHT22;16733;48.738;9.106;2022-09-09T20:06:32;16.90;88.30
29855;DHT22;16733;48.738;9.106;2022-09-09T20:08:58;16.90;89.80
29855;DHT22;16733;48.738;9.106;2022-09-09T20:11:25;16.90;89.00
29855;DHT22;16733;48.738;9.106;2022-09-09T20:14:05;16.90;88.80
29855;DHT22;16733;48.738;9.106;2022-09-09T20:16:32;16.80;88.90
29855;DHT22;16733;48.738;9.106;2022-09-09T20:19:00;16.80;88.80
29855;DHT22;16733;48.738;9.106;2022-09-09T20:21:27;16.80;88.70
29855;DHT22;16733;48.738;9.106;2022-09-09T20:23:55;16.70;88.70
29855;DHT22;16733;48.738;9.106;2022-09-09T20:26:22;16.70;88.70
29855;DHT22;16733;48.738;9.106;2022-09-09T20:28:52;16.70;88.60
29855;DHT22;16733;48.738;9.106;2022-09-09T20:31:24;16.70;88.70
29855;DHT22;16733;48.738;9.106;2022-09-09T20:33:50;16.60;88.50
29855;DHT22;16733;48.738;9.106;2022-09-09T20:36:17;16.60;88.70
29855;DHT22;16733;48.738;9.106;2022-09-09T20:42:05;16.50;88.30
29855;DHT22;16733;48.738;9.106;2022-09-09T20:44:32;16.50;89.10
29855;DHT22;16733;48.738;9.106;2022-09-09T20:53:42;16.50;88.80
29855;DHT22;16733;48.738;9.106;2022-09-09T20:56:08;16.40;89.40
29855;DHT22;16733;48.738;9.106;2022-09-09T20:58:34;16.40;89.20
29855;DHT22;16733;48.738;9.106;2022-09-09T21:01:01;16.40;89.10
29855;DHT22;16733;48.738;9.106;2022-09-09T21:03:29;16.40;89.10
29855;DHT22;16733;48.738;9.106;2022-09-09T21:09:33;16.40;89.10
29855;DHT22;16733;48.738;9.106;2022-09-09T21:11:59;16.30;89.80
29855;DHT22;16733;48.738;9.106;2022-09-09T21:14:25;16.30;89.60
29855;DHT22;16733;48.738;9.106;2022-09-09T21:16:52;16.30;89.60
29855;DHT22;16733;48.738;9.106;2022-09-09T21:19:18;16.30;89.60
29855;DHT22;16733;48.738;9.106;2022-09-09T21:21:44;16.30;89.60
29855;DHT22;16733;48.738;9.106;2022-09-09T21:24:12;16.20;89.60
29855;DHT22;16733;48.738;9.106;2022-09-09T21:29:59;16.20;89.30
29855;DHT22;16733;48.738;9.106;2022-09-09T21:32:28;16.10;90.00
29855;DHT22;16733;48.738;9.106;2022-09-09T21:38:18;16.10;89.70
29855;DHT22;16733;48.738;9.106;2022-09-09T21:40:45;16.10;90.10
29855;DHT22;16733;48.738;9.106;2022-09-09T21:43:12;16.10;90.10
29855;DHT22;16733;48.738;9.106;2022-09-09T21:49:00;16.10;89.90
29855;DHT22;16733;48.738;9.106;2022-09-09T21:54:50;16.00;90.00
29855;DHT22;16733;48.738;9.106;2022-09-09T21:57:15;16.00;90.40
29855;DHT22;16733;48.738;9.106;2022-09-09T21:59:41;16.00;90.30
29855;DHT22;16733;48.738;9.106;2022-09-09T22:05:29;16.00;90.20
29855;DHT22;16733;48.738;9.106;2022-09-09T22:07:56;16.00;90.50
29855;DHT22;16733;48.738;9.106;2022-09-09T22:13:44;16.00;90.40
29855;DHT22;16733;48.738;9.106;2022-09-09T22:16:12;16.00;90.70
29855;DHT22;16733;48.738;9.106;2022-09-09T22:18:39;15.90;90.60
29855;DHT22;16733;48.738;9.106;2022-09-09T22:21:24;15.90;90.70
29855;DHT22;16733;48.738;9.106;2022-09-09T22:27:12;15.90;90.60
29855;DHT22;16733;48.738;9.106;2022-09-09T22:29:41;16.00;90.90
29855;DHT22;16733;48.738;9.106;2022-09-09T22:32:07;16.10;90.80
29855;DHT22;16733;48.738;9.106;2022-09-09T22:34:34;16.10;90.80
29855;DHT22;16733;48.738;9.106;2022-09-09T22:37:01;16.10;90.80
29855;DHT22;16733;48.738;9.106;2022-09-09T22:42:49;16.00;90.60
29855;DHT22;16733;48.738;9.106;2022-09-09T22:45:16;16.10;91.00